Time;durP1;ratioP1;P1;durP2;ratioP2;P2;SDS_P1;SDS_P2;PMS_P1;PMS_P2;Temp;Humidity;BMP_temperature;BMP_pressure;BME280_temperature;BME280_humidity;BME280_pressure;Samples;Min_cycle;Max_cycle;Signal;HPM_P1;HPM_P2
2022/01/30 00:01:47;;;;;;;3.55;0.82;;;20.30;46.00;;;;;;5031249;28;20051;-80
2022/01/30 00:04:13;;;;;;;3.72;0.80;;;20.30;46.00;;;;;;5031045;28;20053;-80
2022/01/30 00:06:38;;;;;;;2.78;0.80;;;20.30;46.00;;;;;;5031702;28;20059;-80
2022/01/30 00:09:06;;;;;;;3.30;0.60;;;20.20;45.90;;;;;;5031066;28;20550;-80
2022/01/30 00:11:35;;;;;;;4.82;0.93;;;20.20;46.00;;;;;;5031482;28;20048;-80
2022/01/30 00:14:02;;;;;;;4.38;0.85;;;20.20;46.00;;;;;;5031288;28;20045;-81
2022/01/30 00:16:32;;;;;;;5.63;1.13;;;20.20;46.00;;;;;;5030803;28;20374;-80
2022/01/30 00:24:02;;;;;;;2.70;0.50;;;20.20;46.00;;;;;;5046824;28;20466;-80
2022/01/30 00:26:31;;;;;;;3.55;0.70;;;20.20;46.00;;;;;;5031031;28;20481;-80
2022/01/30 00:28:57;;;;;;;3.40;0.75;;;20.10;45.90;;;;;;5030969;28;20480;-80
2022/01/30 00:31:24;;;;;;;4.85;0.77;;;20.10;45.90;;;;;;5030376;28;20060;-80
2022/01/30 00:33:50;;;;;;;2.78;0.70;;;20.10;46.00;;;;;;5030685;28;20071;-80
2022/01/30 00:36:15;;;;;;;2.67;0.70;;;20.10;46.00;;;;;;5030722;28;20037;-80
2022/01/30 00:38:41;;;;;;;3.33;0.82;;;20.30;46.10;;;;;;5030095;28;20175;-80
2022/01/30 00:41:07;;;;;;;2.90;0.60;;;20.10;46.00;;;;;;5048835;28;20056;-80
2022/01/30 00:43:33;;;;;;;3.05;0.88;;;20.10;46.00;;;;;;5030955;28;20041;-80
2022/01/30 00:45:58;;;;;;;4.35;0.82;;;20.10;46.00;;;;;;5030202;28;20480;-80
2022/01/30 00:48:24;;;;;;;3.50;0.80;;;20.10;46.00;;;;;;5030950;28;20199;-80
2022/01/30 00:50:49;;;;;;;3.33;0.70;;;20.00;45.90;;;;;;5030862;28;20045;-79
2022/01/30 00:53:15;;;;;;;3.72;0.73;;;20.00;45.90;;;;;;5030167;28;20076;-80
2022/01/30 00:55:40;;;;;;;3.75;0.93;;;20.00;45.90;;;;;;5030676;28;20084;-80
2022/01/30 00:58:06;;;;;;;2.97;0.70;;;20.00;46.00;;;;;;5030774;28;20439;-80
2022/01/30 01:00:32;;;;;;;3.22;0.52;;;20.00;46.00;;;;;;5029906;28;20049;-80
2022/01/30 01:02:57;;;;;;;3.58;0.77;;;20.00;46.00;;;;;;5030971;28;20118;-80
2022/01/30 01:05:23;;;;;;;4.45;0.90;;;20.00;46.10;;;;;;5030908;28;20055;-80
2022/01/30 01:07:50;;;;;;;4.57;0.95;;;20.00;46.00;;;;;;5034868;28;20150;-80
2022/01/30 01:10:38;;;;;;;4.43;0.80;;;19.90;45.90;;;;;;5034402;28;20077;-80
2022/01/30 01:23:24;;;;;;;3.42;0.82;;;19.90;46.00;;;;;;5050177;28;20143;-80
2022/01/30 01:24:07;;;;;;;3.20;0.63;;;19.90;46.00;;;;;;5034375;28;20512;-80
2022/01/30 01:26:32;;;;;;;3.67;0.85;;;19.90;46.00;;;;;;4996576;28;20057;-79
2022/01/30 01:28:58;;;;;;;2.70;0.60;;;19.80;45.90;;;;;;5042734;28;20052;-80
2022/01/30 01:31:23;;;;;;;2.40;0.50;;;19.90;46.00;;;;;;5016897;28;20061;-80
2022/01/30 01:36:15;;;;;;;3.60;0.70;;;19.90;46.00;;;;;;5014339;28;20401;-80
2022/01/30 01:38:41;;;;;;;2.63;0.60;;;19.80;45.90;;;;;;5014135;28;20441;-80
2022/01/30 01:41:06;;;;;;;3.78;0.93;;;19.80;45.90;;;;;;5013467;28;20382;-80
2022/01/30 01:43:32;;;;;;;3.00;0.70;;;20.60;46.40;;;;;;5014221;28;20489;-80
2022/01/30 01:45:59;;;;;;;3.38;0.73;;;19.80;45.90;;;;;;5013966;28;20052;-80
2022/01/30 01:48:25;;;;;;;5.15;0.55;;;19.80;45.90;;;;;;5013110;28;20049;-80
2022/01/30 01:50:54;;;;;;;4.47;0.70;;;19.80;46.00;;;;;;5013913;28;20111;-80
2022/01/30 01:53:22;;;;;;;3.28;0.70;;;19.80;46.00;;;;;;5014092;28;20061;-80
2022/01/30 01:55:47;;;;;;;2.95;0.60;;;19.80;46.00;;;;;;5013190;28;20049;-80
2022/01/30 01:58:13;;;;;;;3.95;0.70;;;19.70;46.00;;;;;;5013750;28;20044;-80
2022/01/30 02:00:38;;;;;;;3.40;0.70;;;19.80;46.00;;;;;;5013687;28;20037;-80
2022/01/30 02:03:05;;;;;;;3.58;0.70;;;19.80;46.00;;;;;;5013036;28;20041;-80
2022/01/30 02:05:33;;;;;;;2.47;0.40;;;19.70;45.90;;;;;;5012505;28;20049;-80
2022/01/30 02:11:01;;;;;;;3.80;0.75;;;19.70;46.00;;;;;;5013081;28;20049;-80
2022/01/30 02:24:33;;;;;;;3.00;0.70;;;19.70;46.00;;;;;;5046608;28;20068;-80
2022/01/30 02:26:59;;;;;;;3.47;0.77;;;19.60;46.00;;;;;;5012879;28;20071;-80
2022/01/30 02:29:25;;;;;;;3.05;0.57;;;19.60;46.00;;;;;;5032941;28;20555;-79
2022/01/30 02:31:55;;;;;;;2.88;0.68;;;19.60;46.00;;;;;;5025843;28;20540;-80
2022/01/30 02:34:25;;;;;;;2.78;0.80;;;19.60;45.90;;;;;;5032796;28;20053;-80
2022/01/30 02:36:51;;;;;;;4.45;1.10;;;19.60;46.00;;;;;;5033616;28;20041;-80
2022/01/30 02:39:18;;;;;;;5.18;0.82;;;19.60;46.00;;;;;;5013489;28;20156;-80
2022/01/30 02:41:43;;;;;;;3.13;0.63;;;19.60;46.00;;;;;;5033038;28;20049;-80
2022/01/30 02:46:46;;;;;;;2.63;0.65;;;19.60;46.00;;;;;;5049335;28;20056;-79
2022/01/30 02:51:49;;;;;;;2.97;0.50;;;19.60;46.00;;;;;;5050032;28;20398;-79
2022/01/30 02:54:14;;;;;;;3.22;0.55;;;19.60;45.90;;;;;;5032439;28;20098;-79
2022/01/30 02:56:41;;;;;;;2.67;0.50;;;19.60;46.00;;;;;;5032520;28;20482;-80
2022/01/30 02:59:06;;;;;;;3.45;0.70;;;19.60;46.00;;;;;;5031649;28;20045;-80
2022/01/30 03:01:32;;;;;;;2.75;0.60;;;19.50;46.00;;;;;;5032517;28;20056;-79
2022/01/30 03:03:58;;;;;;;3.38;0.80;;;19.50;46.00;;;;;;5032311;28;20102;-80
2022/01/30 03:06:24;;;;;;;2.05;0.60;;;19.50;46.00;;;;;;5010932;28;20068;-80
2022/01/30 03:08:49;;;;;;;2.88;0.60;;;19.50;46.00;;;;;;5009812;28;20046;-80
2022/01/30 03:11:15;;;;;;;3.03;0.85;;;19.50;45.90;;;;;;4992980;28;20128;-80
2022/01/30 03:13:40;;;;;;;2.85;0.47;;;19.50;46.00;;;;;;5009473;28;20049;-80
2022/01/30 03:16:06;;;;;;;3.25;0.90;;;21.00;46.80;;;;;;4992587;28;20049;-79
2022/01/30 03:18:32;;;;;;;4.60;0.85;;;19.50;46.00;;;;;;4996977;28;20413;-80
2022/01/30 03:20:57;;;;;;;2.78;0.68;;;20.60;46.50;;;;;;4988781;28;20486;-80
2022/01/30 03:23:23;;;;;;;3.58;0.65;;;19.50;46.00;;;;;;4990544;28;20080;-79
2022/01/30 03:25:54;;;;;;;3.10;0.75;;;19.50;46.00;;;;;;4989435;28;20054;-79
2022/01/30 03:28:20;;;;;;;2.47;0.57;;;19.50;46.00;;;;;;4988261;28;20053;-80
2022/01/30 03:30:47;;;;;;;3.13;0.70;;;19.50;46.00;;;;;;5005825;28;20716;-80
2022/01/30 03:33:13;;;;;;;4.28;0.70;;;19.50;46.00;;;;;;4988659;28;20038;-80
2022/01/30 03:35:38;;;;;;;3.65;0.80;;;19.50;46.00;;;;;;4986607;28;20137;-80
2022/01/30 03:38:04;;;;;;;3.05;0.60;;;19.50;46.00;;;;;;4985540;28;20053;-80
2022/01/30 03:40:30;;;;;;;3.60;0.80;;;19.50;46.00;;;;;;4972171;28;20398;-80
2022/01/30 03:42:56;;;;;;;2.88;0.68;;;19.50;46.00;;;;;;4972620;28;20057;-80
2022/01/30 03:45:21;;;;;;;3.65;0.75;;;19.50;46.00;;;;;;4972993;28;20050;-80
2022/01/30 03:47:47;;;;;;;3.72;0.70;;;19.50;46.00;;;;;;4972284;28;20042;-80
2022/01/30 03:50:13;;;;;;;4.40;1.02;;;19.50;46.00;;;;;;4972531;28;20096;-80
2022/01/30 03:52:39;;;;;;;2.92;0.73;;;19.50;46.00;;;;;;4972841;28;20078;-80
2022/01/30 03:55:04;;;;;;;3.30;0.70;;;19.50;46.00;;;;;;4972028;28;20050;-80
2022/01/30 03:57:30;;;;;;;4.72;0.70;;;19.50;46.00;;;;;;4972678;28;20050;-80
2022/01/30 03:59:56;;;;;;;2.88;0.70;;;19.50;46.00;;;;;;4972844;28;20046;-80
2022/01/30 04:02:21;;;;;;;3.05;0.75;;;19.50;46.00;;;;;;4970230;28;20407;-80
2022/01/30 04:04:47;;;;;;;4.50;0.70;;;19.50;46.00;;;;;;4979891;28;20177;-80
2022/01/30 04:07:12;;;;;;;2.10;0.52;;;19.50;46.70;;;;;;4972464;28;20049;-80
2022/01/30 04:09:38;;;;;;;2.75;0.90;;;19.60;46.10;;;;;;4971749;28;20050;-80
2022/01/30 04:12:04;;;;;;;3.35;0.50;;;19.50;46.00;;;;;;4972836;28;20101;-80
2022/01/30 04:14:30;;;;;;;3.53;0.68;;;19.60;46.10;;;;;;4972344;28;20682;-80
2022/01/30 04:16:57;;;;;;;3.08;0.63;;;19.60;46.10;;;;;;4987738;28;20085;-80
2022/01/30 04:19:22;;;;;;;2.05;0.45;;;19.60;46.10;;;;;;4972382;28;20056;-80
2022/01/30 04:21:48;;;;;;;3.33;0.80;;;19.60;46.10;;;;;;4972542;28;20050;-80
2022/01/30 04:24:14;;;;;;;3.28;0.60;;;19.60;46.10;;;;;;4974802;28;20505;-80
2022/01/30 04:26:39;;;;;;;2.88;0.70;;;19.60;46.10;;;;;;5023670;28;20064;-80
2022/01/30 04:29:05;;;;;;;5.30;0.88;;;19.60;46.10;;;;;;4937119;28;20502;-80
2022/01/30 04:31:31;;;;;;;2.22;0.50;;;19.60;46.10;;;;;;4933146;29;20054;-80
2022/01/30 04:33:57;;;;;;;1.42;0.43;;;19.60;46.00;;;;;;4966206;28;20122;-80
2022/01/30 04:36:28;;;;;;;2.85;0.50;;;19.60;46.00;;;;;;4948954;28;20058;-80
2022/01/30 04:39:04;;;;;;;3.72;0.80;;;19.60;46.10;;;;;;4965606;28;20062;-80
2022/01/30 04:52:33;;;;;;;3.20;0.70;;;19.60;46.00;;;;;;4968589;28;20051;-80
2022/01/30 04:57:53;;;;;;;3.80;0.70;;;19.60;46.00;;;;;;4969331;28;20079;-80
2022/01/30 05:05:54;;;;;;;5.03;0.75;;;19.60;46.00;;;;;;4968726;28;20411;-80
2022/01/30 05:08:09;;;;;;;3.33;0.70;;;19.60;45.90;;;;;;4937092;29;20059;-80
2022/01/30 05:10:35;;;;;;;2.90;0.57;;;19.60;45.90;;;;;;4937248;29;20059;-80
2022/01/30 05:13:03;;;;;;;2.60;0.65;;;19.60;45.90;;;;;;4968642;28;20051;-80
2022/01/30 05:15:29;;;;;;;3.72;0.68;;;19.60;45.90;;;;;;4936707;29;20458;-80
2022/01/30 05:17:55;;;;;;;3.13;0.75;;;19.60;45.90;;;;;;4969326;28;20051;-80
2022/01/30 05:20:21;;;;;;;3.50;0.70;;;19.60;45.90;;;;;;4949027;28;20115;-80
2022/01/30 05:22:47;;;;;;;3.47;0.65;;;19.60;45.90;;;;;;5007941;28;20036;-80
2022/01/30 05:25:13;;;;;;;4.38;0.80;;;19.60;46.00;;;;;;5007777;28;20046;-80
2022/01/30 05:27:39;;;;;;;3.65;0.60;;;19.60;45.90;;;;;;4974399;28;20513;-80
2022/01/30 05:30:05;;;;;;;4.00;0.73;;;19.60;45.90;;;;;;4975410;28;20058;-80
2022/01/30 05:32:31;;;;;;;3.47;0.80;;;19.60;45.90;;;;;;4975423;28;20077;-80
2022/01/30 05:34:57;;;;;;;2.92;0.65;;;19.60;46.00;;;;;;5008970;28;20096;-80
2022/01/30 05:37:23;;;;;;;2.97;0.65;;;19.60;45.90;;;;;;4994249;28;20210;-80
2022/01/30 05:39:48;;;;;;;2.88;0.90;;;19.60;46.00;;;;;;4993686;28;20054;-80
2022/01/30 05:42:14;;;;;;;3.30;0.70;;;19.60;45.90;;;;;;4994299;28;20596;-80
2022/01/30 05:47:10;;;;;;;2.25;0.60;;;19.90;46.10;;;;;;4993683;28;20054;-80
2022/01/30 05:49:36;;;;;;;2.22;0.60;;;19.60;46.00;;;;;;5010284;28;20057;-80
2022/01/30 05:52:02;;;;;;;3.60;1.10;;;19.60;45.90;;;;;;5014010;28;20054;-80
2022/01/30 05:54:28;;;;;;;3.00;0.70;;;19.60;46.00;;;;;;4993433;28;20038;-80
2022/01/30 05:56:53;;;;;;;2.92;0.52;;;19.60;46.00;;;;;;4994862;28;20046;-80
2022/01/30 05:59:19;;;;;;;4.30;1.15;;;19.60;46.00;;;;;;4994303;28;20761;-80
2022/01/30 06:01:44;;;;;;;3.10;0.88;;;19.70;46.00;;;;;;4993539;28;20081;-80
2022/01/30 06:04:10;;;;;;;3.65;0.77;;;19.70;46.00;;;;;;4994181;28;20077;-80
2022/01/30 06:06:35;;;;;;;3.35;0.50;;;19.70;46.00;;;;;;4994353;28;20050;-80
2022/01/30 06:09:18;;;;;;;2.92;0.73;;;19.70;46.00;;;;;;4993452;28;20052;-80
2022/01/30 06:11:44;;;;;;;3.40;0.77;;;19.70;46.00;;;;;;4994302;28;20650;-80
2022/01/30 06:14:10;;;;;;;3.88;0.60;;;19.70;46.00;;;;;;5026481;28;20167;-80
2022/01/30 06:16:36;;;;;;;4.63;0.95;;;19.70;46.00;;;;;;4983046;28;20057;-80
2022/01/30 06:19:01;;;;;;;3.03;0.70;;;19.70;46.00;;;;;;5011224;28;20501;-80
2022/01/30 06:21:28;;;;;;;2.92;0.80;;;19.70;46.00;;;;;;4994165;28;20058;-80
2022/01/30 06:23:53;;;;;;;3.13;0.90;;;19.80;46.10;;;;;;4993090;28;20485;-80
2022/01/30 06:26:22;;;;;;;2.33;0.55;;;19.80;46.00;;;;;;4993485;28;20044;-80
2022/01/30 06:28:48;;;;;;;3.53;0.65;;;19.80;46.10;;;;;;4994073;28;20893;-80
2022/01/30 06:31:13;;;;;;;4.30;0.73;;;19.80;46.10;;;;;;4969913;28;20054;-80
2022/01/30 06:33:39;;;;;;;2.35;0.55;;;19.80;46.00;;;;;;4984024;28;20405;-80
2022/01/30 06:36:05;;;;;;;4.18;0.80;;;20.30;46.30;;;;;;5010234;28;20084;-80
2022/01/30 06:38:30;;;;;;;2.55;0.60;;;19.80;46.00;;;;;;4955854;28;20054;-80
2022/01/30 06:40:56;;;;;;;3.17;0.60;;;19.80;46.00;;;;;;4972946;28;20061;-80
2022/01/30 06:43:22;;;;;;;4.20;0.70;;;19.90;46.10;;;;;;4990790;28;20092;-80
2022/01/30 06:45:48;;;;;;;3.25;0.68;;;19.90;46.00;;;;;;4973920;28;20058;-80
2022/01/30 06:48:19;;;;;;;3.35;0.90;;;19.90;46.00;;;;;;4966723;28;20097;-80
2022/01/30 06:50:45;;;;;;;3.53;0.70;;;19.90;46.00;;;;;;4979410;28;20047;-80
2022/01/30 06:53:11;;;;;;;2.40;0.65;;;19.90;46.00;;;;;;4976524;28;20053;-80
2022/01/30 06:55:42;;;;;;;3.97;0.80;;;19.90;46.00;;;;;;4989857;28;20046;-81
2022/01/30 06:58:07;;;;;;;1.73;0.55;;;19.90;46.00;;;;;;5004352;28;20086;-80
2022/01/30 07:00:33;;;;;;;2.70;0.60;;;19.90;45.90;;;;;;4996795;28;20089;-81
2022/01/30 07:03:00;;;;;;;3.58;0.88;;;19.90;45.90;;;;;;4988478;28;27885;-81
2022/01/30 07:05:26;;;;;;;2.55;0.60;;;19.90;45.90;;;;;;5045043;28;20048;-80
2022/01/30 07:07:51;;;;;;;3.65;0.90;;;20.90;46.40;;;;;;5020759;28;20412;-81
2022/01/30 07:10:17;;;;;;;3.10;0.70;;;19.90;45.90;;;;;;5009590;28;20053;-81
2022/01/30 07:12:42;;;;;;;3.70;0.68;;;19.90;45.90;;;;;;5031484;28;20404;-81
2022/01/30 07:15:08;;;;;;;2.63;0.57;;;19.90;45.80;;;;;;5032230;28;20084;-81
2022/01/30 07:17:34;;;;;;;3.80;0.75;;;19.90;45.80;;;;;;5032340;28;20485;-81
2022/01/30 07:19:59;;;;;;;3.85;0.93;;;19.90;45.80;;;;;;5031624;28;20086;-81
2022/01/30 07:22:27;;;;;;;4.70;0.80;;;19.90;45.90;;;;;;5032309;28;20075;-81
2022/01/30 07:24:53;;;;;;;3.20;0.70;;;19.90;45.80;;;;;;5031932;28;20119;-81
2022/01/30 07:27:19;;;;;;;5.32;0.80;;;19.90;45.80;;;;;;5049056;28;20562;-80
2022/01/30 07:29:44;;;;;;;3.65;0.77;;;19.90;45.80;;;;;;5016226;28;20050;-80
2022/01/30 07:32:10;;;;;;;3.60;0.75;;;19.90;45.80;;;;;;5007289;28;20053;-81
2022/01/30 07:34:35;;;;;;;4.95;0.90;;;20.80;46.30;;;;;;5008233;28;20046;-81
2022/01/30 07:37:01;;;;;;;3.60;1.10;;;20.00;45.80;;;;;;5008974;28;20052;-80
2022/01/30 07:39:29;;;;;;;4.35;0.85;;;20.00;45.80;;;;;;5007690;28;20505;-81
2022/01/30 07:41:54;;;;;;;5.80;0.90;;;20.00;45.80;;;;;;4992558;28;20056;-81
2022/01/30 07:44:20;;;;;;;3.50;0.80;;;20.40;46.00;;;;;;4976870;28;20415;-79
2022/01/30 07:46:46;;;;;;;2.97;0.80;;;20.00;45.80;;;;;;5000976;28;20044;-79
2022/01/30 07:49:11;;;;;;;6.20;1.00;;;20.50;46.00;;;;;;5038729;28;20136;-80
2022/01/30 07:51:37;;;;;;;3.47;0.85;;;20.00;45.80;;;;;;5028425;28;20049;-82
2022/01/30 07:54:03;;;;;;;3.65;0.70;;;19.90;45.70;;;;;;5021233;28;20068;-80
2022/01/30 07:56:28;;;;;;;3.70;0.60;;;20.00;45.70;;;;;;5023537;28;20132;-80
2022/01/30 07:58:54;;;;;;;3.67;0.80;;;20.00;45.70;;;;;;5028310;28;20041;-80
2022/01/30 08:01:19;;;;;;;3.35;0.80;;;20.00;45.70;;;;;;5019352;28;20064;-80
2022/01/30 08:03:45;;;;;;;4.18;0.77;;;20.20;45.80;;;;;;5031313;28;20041;-80
2022/01/30 08:06:10;;;;;;;3.97;0.85;;;20.00;45.70;;;;;;5031035;28;20123;-80
2022/01/30 08:08:36;;;;;;;2.92;0.70;;;20.00;45.70;;;;;;5030708;28;20075;-80
2022/01/30 08:11:01;;;;;;;4.28;0.60;;;19.90;45.60;;;;;;5031210;28;20045;-80
2022/01/30 08:13:27;;;;;;;5.53;0.90;;;20.00;45.70;;;;;;5031392;28;20052;-80
2022/01/30 08:15:52;;;;;;;2.92;0.80;;;21.40;46.40;;;;;;5028339;28;20452;-79
2022/01/30 08:18:18;;;;;;;4.47;1.00;;;20.00;45.70;;;;;;5029634;28;20053;-80
2022/01/30 08:20:44;;;;;;;3.22;0.82;;;20.00;45.70;;;;;;5043702;28;20717;-80
2022/01/30 08:23:14;;;;;;;2.80;0.80;;;20.00;45.70;;;;;;5029700;28;20100;-80
2022/01/30 08:25:39;;;;;;;4.07;0.98;;;19.90;45.60;;;;;;5030008;28;20037;-80
2022/01/30 08:28:05;;;;;;;3.55;0.80;;;19.90;45.60;;;;;;5029758;28;20158;-80
2022/01/30 08:30:31;;;;;;;4.78;0.93;;;19.90;45.60;;;;;;4860073;28;5091448;-81
2022/01/30 08:32:58;;;;;;;4.20;0.88;;;20.00;45.70;;;;;;5025090;28;20100;-79
2022/01/30 08:35:24;;;;;;;2.83;0.70;;;19.90;45.70;;;;;;5027337;28;20045;-80
2022/01/30 08:37:50;;;;;;;4.20;0.98;;;19.90;45.60;;;;;;5040610;28;20056;-80
2022/01/30 08:40:17;;;;;;;4.45;1.02;;;19.90;45.60;;;;;;5018504;28;21288;-78
2022/01/30 08:42:43;;;;;;;3.60;0.90;;;19.90;45.70;;;;;;5010533;28;20416;-76
2022/01/30 08:45:09;;;;;;;4.78;0.90;;;19.90;45.60;;;;;;5025570;28;20061;-76
2022/01/30 08:47:35;;;;;;;4.40;1.00;;;20.00;45.70;;;;;;5016648;28;20060;-77
2022/01/30 08:50:00;;;;;;;5.35;0.85;;;20.00;45.70;;;;;;5016972;28;20065;-78
2022/01/30 08:52:26;;;;;;;5.47;1.10;;;20.00;45.70;;;;;;5017709;28;20395;-83
2022/01/30 08:54:52;;;;;;;7.38;1.38;;;20.00;45.70;;;;;;5013364;28;20064;-79
2022/01/30 08:57:18;;;;;;;8.43;1.95;;;20.00;45.70;;;;;;5032382;28;20076;-80
2022/01/30 08:59:43;;;;;;;6.30;1.50;;;20.00;45.70;;;;;;5027939;28;20052;-81
2022/01/30 09:02:09;;;;;;;7.85;1.88;;;20.00;45.80;;;;;;5041538;28;20042;-79
2022/01/30 09:04:35;;;;;;;10.75;2.20;;;19.90;45.70;;;;;;5029118;28;20107;-81
2022/01/30 09:07:00;;;;;;;6.85;1.52;;;19.90;45.70;;;;;;5025228;28;20056;-80
2022/01/30 09:09:26;;;;;;;6.10;1.60;;;20.00;45.80;;;;;;5028572;28;20136;-82
2022/01/30 09:11:51;;;;;;;7.45;1.38;;;20.00;45.90;;;;;;5029162;28;20484;-82
2022/01/30 09:14:17;;;;;;;5.38;1.33;;;20.00;45.90;;;;;;5029526;28;20139;-82
2022/01/30 09:16:44;;;;;;;7.72;1.80;;;20.00;45.90;;;;;;5045128;28;20107;-82
2022/01/30 09:19:10;;;;;;;8.15;1.63;;;20.00;45.90;;;;;;5041265;28;20128;-82
2022/01/30 09:21:35;;;;;;;8.27;1.23;;;20.00;45.90;;;;;;5045260;28;20471;-82
2022/01/30 09:24:01;;;;;;;5.85;1.52;;;20.00;45.90;;;;;;5018630;28;20054;-82
2022/01/30 09:26:26;;;;;;;6.57;1.58;;;20.00;45.90;;;;;;5002797;28;20085;-82
2022/01/30 09:28:52;;;;;;;5.88;1.60;;;20.10;46.00;;;;;;4972788;28;20101;-82
2022/01/30 09:31:17;;;;;;;11.00;1.95;;;20.10;46.00;;;;;;5006849;28;20050;-82
2022/01/30 09:33:43;;;;;;;5.30;1.30;;;20.10;45.90;;;;;;4973257;28;20050;-82
2022/01/30 09:36:08;;;;;;;6.55;1.55;;;20.10;45.90;;;;;;4990025;28;20500;-82
2022/01/30 09:38:34;;;;;;;6.47;1.70;;;20.10;45.90;;;;;;5000420;28;20693;-82
2022/01/30 09:41:00;;;;;;;6.32;1.70;;;20.20;45.90;;;;;;4993654;28;20050;-82
2022/01/30 09:43:28;;;;;;;3.97;1.00;;;20.20;45.90;;;;;;4994062;28;20046;-82
2022/01/30 09:45:54;;;;;;;7.88;1.77;;;20.20;45.90;;;;;;4977407;28;20088;-82
2022/01/30 09:48:19;;;;;;;6.93;1.65;;;20.20;45.80;;;;;;4962144;28;20053;-82
2022/01/30 09:50:45;;;;;;;5.55;1.20;;;20.20;45.80;;;;;;4977723;28;20049;-82
2022/01/30 09:53:11;;;;;;;5.88;1.20;;;20.20;45.80;;;;;;4961249;28;20054;-82
2022/01/30 09:55:36;;;;;;;6.65;1.38;;;20.30;45.80;;;;;;4994198;28;20072;-82
2022/01/30 09:58:02;;;;;;;7.40;1.25;;;20.30;45.90;;;;;;4980477;28;20085;-81
2022/01/30 10:00:27;;;;;;;6.20;1.30;;;20.30;45.90;;;;;;4973878;28;20042;-81
2022/01/30 10:02:53;;;;;;;7.13;1.40;;;20.30;45.80;;;;;;4974841;28;20101;-82
2022/01/30 10:05:18;;;;;;;4.60;1.30;;;20.30;45.80;;;;;;4974502;28;20675;-82
2022/01/30 10:07:48;;;;;;;5.93;1.38;;;20.30;46.30;;;;;;4972979;28;20579;-82
2022/01/30 10:10:16;;;;;;;4.78;1.40;;;20.40;45.80;;;;;;4974699;28;20474;-82
2022/01/30 10:13:03;;;;;;;5.38;1.25;;;20.40;45.80;;;;;;4955281;28;20577;-82
2022/01/30 10:15:28;;;;;;;6.10;1.27;;;20.40;45.70;;;;;;4986528;28;20125;-82
2022/01/30 10:17:54;;;;;;;6.82;1.58;;;20.40;45.70;;;;;;4954948;28;20133;-82
2022/01/30 10:20:21;;;;;;;4.22;1.00;;;20.40;45.70;;;;;;4939199;28;20047;-82
2022/01/30 10:22:51;;;;;;;4.40;1.25;;;20.40;45.60;;;;;;4967573;28;20113;-82
2022/01/30 10:25:22;;;;;;;4.45;1.05;;;20.50;45.60;;;;;;5004780;28;20042;-82
2022/01/30 10:27:47;;;;;;;6.07;1.50;;;20.40;45.60;;;;;;4975715;28;20112;-81
2022/01/30 10:30:19;;;;;;;6.15;1.23;;;20.40;45.60;;;;;;5004583;28;20054;-82
2022/01/30 10:32:55;;;;;;;;;;;20.50;45.50;;;;;;4995825;28;20045;-82
2022/01/30 10:35:21;;;;;;;5.70;1.20;;;20.50;45.50;;;;;;5012188;28;19967;-81
2022/01/30 10:37:47;;;;;;;5.93;1.20;;;20.50;45.50;;;;;;5045173;28;20573;-81
2022/01/30 10:40:19;;;;;;;6.47;1.23;;;20.50;45.50;;;;;;5011278;28;20049;-82
2022/01/30 10:42:49;;;;;;;4.97;1.35;;;20.50;45.50;;;;;;5007921;28;20053;-82
2022/01/30 10:45:18;;;;;;;7.47;1.60;;;20.50;45.40;;;;;;5032319;28;20068;-81
2022/01/30 10:47:43;;;;;;;6.20;1.30;;;20.50;45.40;;;;;;5008956;28;20048;-81
2022/01/30 10:50:19;;;;;;;4.93;1.05;;;20.50;45.40;;;;;;5002588;28;20046;-82
2022/01/30 10:52:50;;;;;;;5.85;1.50;;;20.50;45.40;;;;;;5003938;28;20095;-82
2022/01/30 10:55:15;;;;;;;5.15;1.13;;;20.50;45.40;;;;;;4998877;28;20560;-82
2022/01/30 10:57:41;;;;;;;6.65;1.90;;;20.50;45.40;;;;;;5019835;28;20117;-81
2022/01/30 11:00:07;;;;;;;5.63;1.40;;;20.50;45.40;;;;;;5017297;28;20460;-82
2022/01/30 11:02:36;;;;;;;5.70;1.10;;;20.50;45.40;;;;;;4996923;28;20497;-82
2022/01/30 11:05:06;;;;;;;4.20;1.23;;;20.50;45.30;;;;;;5021551;28;20040;-82
2022/01/30 11:07:34;;;;;;;5.13;1.10;;;20.60;45.40;;;;;;5007339;28;20416;-81
2022/01/30 11:10:07;;;;;;;6.05;1.65;;;20.60;45.40;;;;;;5009560;28;20041;-81
2022/01/30 11:12:46;;;;;;;6.63;1.90;;;20.60;45.30;;;;;;5010794;28;20045;-81
2022/01/30 11:15:35;;;;;;;7.85;1.58;;;20.60;45.40;;;;;;5026793;28;20124;-82
2022/01/30 11:18:03;;;;;;;5.93;1.58;;;20.60;45.30;;;;;;5025069;28;20421;-82
2022/01/30 11:20:32;;;;;;;4.35;1.15;;;20.60;45.30;;;;;;5012538;28;20203;-81
2022/01/30 11:23:02;;;;;;;5.78;1.52;;;20.60;45.30;;;;;;5044642;28;20091;-81
2022/01/30 11:25:33;;;;;;;5.63;1.33;;;20.60;45.20;;;;;;5011469;28;20049;-81
2022/01/30 11:28:01;;;;;;;4.23;1.00;;;20.60;45.20;;;;;;5008079;28;20062;-82
2022/01/30 11:30:27;;;;;;;5.03;1.33;;;20.60;45.20;;;;;;4992431;28;20293;-82
2022/01/30 11:32:53;;;;;;;6.43;1.20;;;20.60;45.10;;;;;;4981606;28;20099;-82
2022/01/30 11:35:18;;;;;;;5.45;1.20;;;20.60;45.10;;;;;;4972714;28;20061;-82
2022/01/30 11:37:44;;;;;;;5.00;1.08;;;20.60;45.10;;;;;;4985470;28;20054;-81
2022/01/30 11:40:11;;;;;;;7.85;1.70;;;20.60;45.10;;;;;;4987090;28;20637;-82
2022/01/30 11:42:40;;;;;;;4.90;1.08;;;20.60;45.10;;;;;;5005755;28;20050;-82
2022/01/30 11:45:15;;;;;;;3.17;0.90;;;20.60;45.00;;;;;;4973996;28;20490;-82
2022/01/30 11:47:51;;;;;;;6.95;1.50;;;20.60;45.00;;;;;;4971703;28;20050;-82
2022/01/30 11:50:25;;;;;;;5.10;1.08;;;20.60;45.00;;;;;;4990552;28;20057;-82
2022/01/30 11:52:51;;;;;;;5.38;1.25;;;20.60;44.90;;;;;;4992331;28;20065;-81
2022/01/30 11:55:37;;;;;;;4.80;1.27;;;20.60;44.90;;;;;;4991955;28;20053;-81
2022/01/30 11:58:02;;;;;;;5.47;1.25;;;20.90;45.20;;;;;;4994813;28;20049;-81
2022/01/30 12:00:43;;;;;;;5.07;1.85;;;20.60;45.10;;;;;;5010897;28;20049;-81
2022/01/30 12:04:00;;;;;;;6.30;1.52;;;20.60;45.10;;;;;;4995181;28;20057;-81
2022/01/30 12:06:25;;;;;;;3.53;1.00;;;20.60;45.00;;;;;;4978897;28;20068;-82
2022/01/30 12:08:52;;;;;;;5.03;1.63;;;20.60;45.00;;;;;;5010096;28;20124;-81
2022/01/30 12:11:47;;;;;;;5.25;1.35;;;20.60;45.00;;;;;;5010464;28;20151;-82
2022/01/30 12:14:21;;;;;;;4.30;1.00;;;20.60;45.00;;;;;;5011134;28;20049;-82
2022/01/30 12:17:07;;;;;;;4.07;1.08;;;20.60;44.90;;;;;;5045010;28;20103;-81
2022/01/30 12:19:48;;;;;;;4.43;1.58;;;20.60;45.30;;;;;;5008969;28;20081;-82
2022/01/30 12:22:17;;;;;;;4.53;1.17;;;21.80;45.70;;;;;;5027853;28;20052;-82
2022/01/30 12:24:43;;;;;;;5.40;1.00;;;20.60;45.10;;;;;;5010165;28;20470;-82
2022/01/30 12:27:11;;;;;;;4.70;1.30;;;20.60;45.10;;;;;;5027630;28;20041;-82
2022/01/30 12:29:50;;;;;;;3.17;0.98;;;20.60;45.10;;;;;;5010794;28;20183;-82
2022/01/30 12:32:28;;;;;;;4.18;1.20;;;20.60;45.10;;;;;;5008648;28;20115;-82
2022/01/30 12:35:00;;;;;;;7.10;1.45;;;20.70;45.60;;;;;;5009864;28;20045;-81
2022/01/30 12:37:33;;;;;;;4.28;1.08;;;20.60;45.00;;;;;;5010721;28;20042;-81
2022/01/30 12:40:14;;;;;;;4.38;1.13;;;20.70;45.10;;;;;;5011170;28;20054;-81
2022/01/30 12:42:42;;;;;;;3.92;1.08;;;20.60;45.00;;;;;;5010534;28;20049;-80
2022/01/30 12:45:23;;;;;;;6.38;1.60;;;20.70;45.10;;;;;;5009192;28;20050;-81
2022/01/30 12:47:53;;;;;;;4.47;1.25;;;20.70;45.10;;;;;;5007180;28;20060;-82
2022/01/30 12:50:20;;;;;;;6.55;1.10;;;21.00;45.20;;;;;;5009448;28;20061;-82
2022/01/30 12:55:43;;;;;;;5.07;1.00;;;20.80;45.20;;;;;;5007481;28;20041;-82
2022/01/30 12:58:08;;;;;;;4.85;1.02;;;20.70;45.20;;;;;;5024625;28;20052;-82
2022/01/30 13:00:37;;;;;;;4.20;1.25;;;20.80;45.10;;;;;;5042743;28;20049;-82
2022/01/30 13:03:05;;;;;;;5.70;1.25;;;20.80;45.10;;;;;;5012862;28;20124;-81
2022/01/30 13:05:32;;;;;;;4.85;1.10;;;20.80;45.10;;;;;;5014384;28;20045;-81
2022/01/30 13:08:00;;;;;;;4.00;1.00;;;20.80;45.10;;;;;;5012103;28;20049;-81
2022/01/30 13:10:26;;;;;;;5.10;1.50;;;20.40;44.90;;;;;;5009542;28;20124;-82
2022/01/30 13:12:53;;;;;;;5.47;1.38;;;20.80;45.10;;;;;;5015199;28;20168;-80
2022/01/30 13:15:22;;;;;;;3.08;0.88;;;20.80;45.10;;;;;;5015954;28;20110;-81
2022/01/30 13:17:48;;;;;;;4.07;0.90;;;21.90;45.60;;;;;;5013401;28;20083;-82
2022/01/30 13:20:14;;;;;;;4.47;0.93;;;20.90;45.10;;;;;;5044261;28;20042;-82
2022/01/30 13:22:43;;;;;;;3.72;0.85;;;20.90;45.10;;;;;;5018643;28;20099;-81
2022/01/30 13:25:11;;;;;;;3.65;0.88;;;20.90;45.10;;;;;;5013356;28;21391;-82
2022/01/30 13:27:47;;;;;;;3.97;1.10;;;21.50;45.40;;;;;;5014301;28;20583;-81
2022/01/30 13:30:25;;;;;;;4.05;1.10;;;20.90;45.00;;;;;;5013311;28;20111;-82
2022/01/30 13:33:03;;;;;;;3.97;1.13;;;21.60;45.40;;;;;;5012050;28;20060;-81
2022/01/30 13:35:32;;;;;;;4.43;1.17;;;22.20;46.10;;;;;;5029854;28;20056;-81
2022/01/30 13:38:19;;;;;;;4.05;1.08;;;21.00;45.00;;;;;;5010642;28;20050;-81
2022/01/30 13:41:03;;;;;;;4.55;1.13;;;21.00;45.00;;;;;;5013449;28;20045;-81
2022/01/30 13:43:35;;;;;;;6.03;1.33;;;21.00;45.00;;;;;;5019903;28;20049;-81
2022/01/30 13:48:45;;;;;;;4.88;1.20;;;21.00;45.00;;;;;;5027267;28;20128;-81
2022/01/30 13:51:19;;;;;;;5.80;0.73;;;20.70;44.80;;;;;;5029672;28;20128;-81
2022/01/30 13:53:45;;;;;;;4.32;1.00;;;21.00;44.90;;;;;;5015821;28;21158;-81